createdAt,value
2018-11-05T00:01:06.716Z,7.40
2018-11-05T00:03:35.305Z,7.40
2018-11-05T00:06:03.882Z,7.40
2018-11-05T00:08:32.456Z,7.40
2018-11-05T00:11:00.977Z,7.30
2018-11-05T00:13:29.607Z,7.20
2018-11-05T00:15:58.316Z,7.20
2018-11-05T00:18:26.900Z,7.20
2018-11-05T00:20:55.442Z,7.30
2018-11-05T00:23:24.115Z,7.30
2018-11-05T00:25:52.749Z,7.40
2018-11-05T00:28:21.332Z,7.40
2018-11-05T00:30:49.963Z,7.40
2018-11-05T00:33:18.514Z,7.30
2018-11-05T00:35:47.075Z,7.40
2018-11-05T00:38:15.602Z,7.40
2018-11-05T00:40:44.102Z,7.40
2018-11-05T00:43:12.726Z,7.50
2018-11-05T00:45:41.351Z,7.50
2018-11-05T00:48:09.890Z,7.50
2018-11-05T00:50:38.496Z,7.50
2018-11-05T00:53:07.042Z,7.50
2018-11-05T00:55:35.908Z,7.50
2018-11-05T00:58:04.425Z,7.60
2018-11-05T01:00:33.062Z,7.60
2018-11-05T01:03:01.532Z,7.70
2018-11-05T01:05:30.120Z,7.60
2018-11-05T01:07:58.782Z,7.70
2018-11-05T01:10:27.346Z,7.70
2018-11-05T01:12:55.819Z,7.70
2018-11-05T01:15:24.300Z,7.70
2018-11-05T01:17:52.923Z,7.70
2018-11-05T01:20:21.443Z,7.70
2018-11-05T01:22:50.162Z,7.70
2018-11-05T01:25:18.841Z,7.70
2018-11-05T01:27:47.537Z,7.50
2018-11-05T01:30:16.143Z,8.80
2018-11-05T01:32:44.727Z,7.50
2018-11-05T01:35:13.986Z,7.40
2018-11-05T01:37:42.627Z,7.40
2018-11-05T01:40:15.650Z,7.40
2018-11-05T01:42:44.610Z,7.30
2018-11-05T01:45:14.008Z,7.20
2018-11-05T01:47:43.206Z,7.20
2018-11-05T01:50:13.567Z,7.20
2018-11-05T01:52:42.520Z,7.20
2018-11-05T01:55:11.452Z,7.20
2018-11-05T01:57:40.586Z,7.10
2018-11-05T02:00:11.048Z,7.10
2018-11-05T02:02:39.917Z,7.10
2018-11-05T02:05:09.266Z,7.10
2018-11-05T02:07:37.731Z,7.10
2018-11-05T02:10:09.311Z,7.00
2018-11-05T02:12:38.153Z,7.00
2018-11-05T02:15:07.543Z,7.10
2018-11-05T02:17:36.168Z,7.10
2018-11-05T02:20:05.739Z,7.00
2018-11-05T02:22:34.308Z,7.00
2018-11-05T02:25:02.883Z,7.00
2018-11-05T02:27:31.767Z,7.00
2018-11-05T02:30:00.366Z,7.00
2018-11-05T02:32:29.219Z,7.00
2018-11-05T02:34:57.718Z,7.00
2018-11-05T02:37:26.328Z,6.90
2018-11-05T02:39:54.883Z,6.90
2018-11-05T02:42:23.542Z,6.90
2018-11-05T02:44:52.049Z,6.90
2018-11-05T02:47:20.524Z,6.90
2018-11-05T02:49:49.247Z,6.90
2018-11-05T02:52:17.763Z,6.90
2018-11-05T02:54:46.295Z,6.90
2018-11-05T02:57:14.828Z,6.90
2018-11-05T02:59:43.512Z,6.90
2018-11-05T03:02:12.030Z,6.90
2018-11-05T03:04:40.660Z,6.90
2018-11-05T03:07:09.201Z,6.90
2018-11-05T03:09:37.758Z,6.80
2018-11-05T03:12:06.804Z,6.80
2018-11-05T03:14:35.520Z,6.80
2018-11-05T03:17:04.075Z,6.80
2018-11-05T03:19:32.604Z,6.80
2018-11-05T03:22:01.171Z,6.70
2018-11-05T03:24:29.702Z,6.60
2018-11-05T03:26:58.171Z,6.60
2018-11-05T03:29:26.625Z,6.60
2018-11-05T03:31:55.103Z,6.60
2018-11-05T03:34:23.875Z,6.60
2018-11-05T03:36:52.561Z,6.70
2018-11-05T03:39:21.031Z,6.70
2018-11-05T03:41:49.768Z,6.70
2018-11-05T03:44:18.252Z,6.70
2018-11-05T03:46:46.922Z,6.60
2018-11-05T03:49:15.473Z,6.60
2018-11-05T03:51:44.018Z,6.50
2018-11-05T03:54:12.563Z,6.50
2018-11-05T03:56:41.157Z,6.50
2018-11-05T03:59:09.787Z,6.50
2018-11-05T04:01:38.339Z,6.50
2018-11-05T04:04:07.153Z,6.50
2018-11-05T04:06:35.662Z,6.50
2018-11-05T04:09:05.668Z,6.50
2018-11-05T04:11:34.159Z,6.50
2018-11-05T04:14:02.686Z,6.50
2018-11-05T04:16:31.452Z,6.50
2018-11-05T04:19:00.152Z,6.50
2018-11-05T04:21:39.671Z,6.50
2018-11-05T04:24:08.834Z,6.60
2018-11-05T04:26:37.470Z,6.50
2018-11-05T04:29:06.249Z,6.40
2018-11-05T04:31:34.840Z,6.30
2018-11-05T04:34:03.514Z,6.30
2018-11-05T04:36:31.967Z,6.40
2018-11-05T04:39:00.590Z,6.50
2018-11-05T04:41:29.433Z,6.60
2018-11-05T04:43:57.937Z,6.50
2018-11-05T04:46:26.575Z,6.40
2018-11-05T04:48:55.176Z,6.40
2018-11-05T04:51:23.684Z,6.40
2018-11-05T04:53:52.219Z,6.40
2018-11-05T04:56:20.811Z,6.40
2018-11-05T04:58:49.355Z,6.40
2018-11-05T05:01:18.038Z,6.40
2018-11-05T05:03:46.560Z,6.40
2018-11-05T05:06:15.010Z,6.40
2018-11-05T05:08:43.668Z,6.30
2018-11-05T05:11:12.279Z,6.40
2018-11-05T05:13:40.902Z,6.30
2018-11-05T05:16:09.405Z,6.30
2018-11-05T05:18:37.972Z,6.30
2018-11-05T05:21:06.603Z,6.30
2018-11-05T05:23:35.117Z,6.30
2018-11-05T05:26:03.612Z,6.30
2018-11-05T05:28:32.243Z,6.20
2018-11-05T05:31:00.836Z,6.30
2018-11-05T05:33:29.462Z,6.30
2018-11-05T05:35:57.990Z,6.30
2018-11-05T05:38:26.478Z,6.30
2018-11-05T05:40:55.195Z,6.30
2018-11-05T05:43:23.895Z,6.20
2018-11-05T05:45:52.931Z,6.20
2018-11-05T05:48:21.430Z,6.20
2018-11-05T05:50:49.910Z,6.20
2018-11-05T05:53:18.478Z,6.20
2018-11-05T05:55:46.955Z,6.20
2018-11-05T05:58:15.396Z,6.10
2018-11-05T06:00:43.876Z,6.20
2018-11-05T06:03:12.407Z,6.20
2018-11-05T06:05:40.903Z,6.20
2018-11-05T06:08:09.620Z,6.20
2018-11-05T06:10:38.100Z,6.10
2018-11-05T06:13:06.742Z,6.10
2018-11-05T06:15:35.325Z,6.10
2018-11-05T06:18:03.910Z,6.20
2018-11-05T06:20:32.534Z,6.20
2018-11-05T06:23:01.040Z,6.00
2018-11-05T06:25:29.517Z,6.00
2018-11-05T06:27:58.129Z,6.10
2018-11-05T06:30:26.631Z,6.10
2018-11-05T06:32:55.139Z,6.20
2018-11-05T06:35:23.700Z,6.10
2018-11-05T06:37:52.090Z,6.10
2018-11-05T06:40:21.239Z,6.10
2018-11-05T06:42:50.259Z,6.20
2018-11-05T06:45:20.246Z,6.10
2018-11-05T06:47:49.006Z,6.10
2018-11-05T06:50:19.835Z,6.10
2018-11-05T06:52:48.531Z,6.10
2018-11-05T06:55:17.267Z,6.20
2018-11-05T06:57:45.886Z,6.30
2018-11-05T07:00:20.917Z,6.30
2018-11-05T07:02:49.719Z,6.30
2018-11-05T07:05:18.360Z,6.30
2018-11-05T07:07:46.914Z,6.40
2018-11-05T07:10:16.151Z,6.30
2018-11-05T07:12:45.134Z,6.40
2018-11-05T07:15:15.959Z,6.50
2018-11-05T07:17:45.474Z,6.50
2018-11-05T07:20:18.430Z,6.50
2018-11-05T07:22:47.935Z,6.70
2018-11-05T07:25:16.718Z,6.60
2018-11-05T07:27:45.327Z,6.70
2018-11-05T07:30:16.790Z,6.70
2018-11-05T07:32:45.780Z,6.90
2018-11-05T07:35:15.246Z,6.90
2018-11-05T07:37:44.082Z,7.00
2018-11-05T07:40:14.178Z,7.00
2018-11-05T07:42:42.969Z,7.00
2018-11-05T07:45:13.917Z,7.10
2018-11-05T07:47:43.617Z,7.20
2018-11-05T07:50:13.615Z,7.30
2018-11-05T07:52:42.071Z,7.40
2018-11-05T07:55:12.292Z,7.40
2018-11-05T07:57:42.113Z,7.50
2018-11-05T08:00:17.501Z,7.50
2018-11-05T08:02:47.061Z,7.60
2018-11-05T08:05:16.558Z,7.70
2018-11-05T08:07:45.311Z,7.80
2018-11-05T08:10:14.052Z,7.80
2018-11-05T08:12:42.763Z,7.90
2018-11-05T08:15:13.956Z,7.90
2018-11-05T08:17:43.475Z,8.00
2018-11-05T08:20:12.387Z,8.00
2018-11-05T08:22:41.025Z,8.10
2018-11-05T08:25:10.505Z,8.10
2018-11-05T08:27:39.347Z,8.20
2018-11-05T08:30:13.890Z,8.20
2018-11-05T08:32:42.850Z,8.20
2018-11-05T08:35:12.500Z,8.30
2018-11-05T08:37:42.081Z,8.30
2018-11-05T08:40:14.794Z,8.40
2018-11-05T08:42:44.159Z,8.40
2018-11-05T08:45:13.920Z,8.50
2018-11-05T08:47:42.678Z,8.50
2018-11-05T08:50:13.190Z,8.50
2018-11-05T08:52:41.861Z,8.60
2018-11-05T08:55:13.131Z,8.60
2018-11-05T08:57:42.235Z,8.60
2018-11-05T09:00:19.930Z,8.70
2018-11-05T09:02:48.883Z,8.80
2018-11-05T09:05:17.537Z,8.80
2018-11-05T09:07:46.987Z,8.90
2018-11-05T09:10:15.693Z,8.90
2018-11-05T09:12:44.261Z,9.00
2018-11-05T09:15:14.356Z,9.10
2018-11-05T09:17:43.903Z,9.10
2018-11-05T09:20:13.677Z,9.20
2018-11-05T09:22:42.314Z,9.20
2018-11-05T09:25:11.782Z,9.30
2018-11-05T09:27:40.262Z,9.30
2018-11-05T09:30:11.443Z,9.40
2018-11-05T09:32:40.133Z,9.50
2018-11-05T09:35:09.299Z,9.60
2018-11-05T09:37:37.935Z,9.60
2018-11-05T09:40:08.647Z,9.70
2018-11-05T09:42:37.508Z,9.80
2018-11-05T09:45:08.234Z,9.80
2018-11-05T09:47:36.712Z,9.90
2018-11-05T09:50:06.315Z,10.00
2018-11-05T09:52:34.818Z,10.10
2018-11-05T09:55:03.334Z,10.20
2018-11-05T09:57:31.958Z,10.20
2018-11-05T10:00:00.619Z,10.30
2018-11-05T10:02:34.335Z,10.40
2018-11-05T10:05:02.971Z,10.50
2018-11-05T10:07:31.495Z,10.50
2018-11-05T10:10:00.037Z,10.60
2018-11-05T10:12:28.875Z,10.70
2018-11-05T10:14:57.507Z,10.70
2018-11-05T10:17:26.400Z,10.80
2018-11-05T10:19:54.934Z,10.80
2018-11-05T10:22:23.524Z,10.90
2018-11-05T10:24:52.130Z,11.00
2018-11-05T10:27:20.640Z,11.10
2018-11-05T10:29:49.141Z,11.20
2018-11-05T10:32:17.851Z,11.20
2018-11-05T10:34:46.343Z,11.30
2018-11-05T10:37:14.910Z,11.40
2018-11-05T10:39:43.584Z,11.40
2018-11-05T10:42:12.386Z,11.50
2018-11-05T10:44:40.867Z,11.60
2018-11-05T10:47:09.724Z,11.60
2018-11-05T10:49:38.437Z,11.70
2018-11-05T10:52:07.072Z,11.70
2018-11-05T10:54:35.531Z,11.70
2018-11-05T10:57:04.023Z,11.70
2018-11-05T10:59:32.617Z,11.80
2018-11-05T11:02:06.628Z,11.80
2018-11-05T11:04:36.122Z,11.80
2018-11-05T11:07:05.068Z,11.90
2018-11-05T11:09:33.931Z,11.90
2018-11-05T11:12:02.436Z,11.90
2018-11-05T11:14:31.209Z,11.90
2018-11-05T11:16:59.857Z,11.90
2018-11-05T11:19:28.382Z,11.90
2018-11-05T11:21:56.986Z,11.90
2018-11-05T11:24:25.467Z,11.90
2018-11-05T11:26:54.049Z,11.90
2018-11-05T11:29:22.733Z,12.00
2018-11-05T11:31:51.250Z,11.90
2018-11-05T11:34:19.769Z,11.90
2018-11-05T11:36:48.653Z,12.00
2018-11-05T11:39:16.927Z,12.00
2018-11-05T11:41:45.513Z,12.00
2018-11-05T11:44:14.209Z,12.10
2018-11-05T11:46:42.495Z,12.10
2018-11-05T11:49:11.171Z,12.10
2018-11-05T11:51:39.650Z,12.00
2018-11-05T11:54:08.217Z,12.10
2018-11-05T11:56:36.906Z,12.00
2018-11-05T11:59:05.834Z,12.10
2018-11-05T12:01:39.398Z,12.00
2018-11-05T12:04:07.919Z,12.00
2018-11-05T12:06:36.411Z,12.00
2018-11-05T12:09:07.031Z,12.10
2018-11-05T12:11:35.536Z,12.10
2018-11-05T12:14:04.273Z,12.10
2018-11-05T12:16:32.701Z,12.10
2018-11-05T12:19:01.356Z,12.10
2018-11-05T12:21:29.866Z,12.20
2018-11-05T12:23:58.360Z,12.20
2018-11-05T12:26:26.856Z,12.20
2018-11-05T12:28:55.567Z,12.20
2018-11-05T12:31:24.051Z,12.20
2018-11-05T12:33:52.644Z,12.20
2018-11-05T12:36:21.426Z,12.30
2018-11-05T12:38:50.159Z,12.30
2018-11-05T12:41:18.795Z,12.30
2018-11-05T12:43:47.396Z,12.20
2018-11-05T12:46:16.056Z,12.30
2018-11-05T12:48:44.655Z,12.20
2018-11-05T12:51:13.198Z,12.20
2018-11-05T12:53:41.751Z,12.30
2018-11-05T12:56:10.343Z,12.30
2018-11-05T12:58:38.896Z,12.30
2018-11-05T13:01:07.557Z,12.30
2018-11-05T13:03:36.098Z,12.30
2018-11-05T13:06:04.868Z,12.30
2018-11-05T13:08:33.302Z,12.30
2018-11-05T13:11:01.788Z,12.20
2018-11-05T13:13:30.263Z,12.20
2018-11-05T13:15:58.890Z,12.20
2018-11-05T13:18:27.369Z,12.20
2018-11-05T13:20:56.011Z,12.20
2018-11-05T13:23:56.523Z,12.20
2018-11-05T13:26:25.066Z,12.20
2018-11-05T13:28:53.647Z,12.20
2018-11-05T13:31:22.163Z,12.20
2018-11-05T13:33:50.798Z,12.20
2018-11-05T13:36:19.399Z,12.20
2018-11-05T13:38:47.911Z,12.20
2018-11-05T13:41:16.510Z,12.20
2018-11-05T13:43:45.131Z,12.20
2018-11-05T13:46:14.104Z,12.20
2018-11-05T13:48:42.825Z,12.20
2018-11-05T13:51:10.900Z,12.30
2018-11-05T13:53:39.394Z,12.30
2018-11-05T13:56:08.061Z,12.30
2018-11-05T13:58:36.539Z,12.30
2018-11-05T14:01:05.699Z,12.40
2018-11-05T14:03:34.348Z,12.30
2018-11-05T14:06:02.836Z,12.30
2018-11-05T14:08:31.369Z,12.40
2018-11-05T14:10:59.975Z,12.40
2018-11-05T14:13:28.675Z,12.40
2018-11-05T14:15:57.135Z,12.40
2018-11-05T14:18:25.720Z,12.50
2018-11-05T14:20:54.236Z,12.40
2018-11-05T14:23:22.734Z,12.40
2018-11-05T14:25:51.581Z,12.40
2018-11-05T14:28:20.312Z,12.40
2018-11-05T14:30:48.576Z,12.40
2018-11-05T14:33:17.078Z,12.30
2018-11-05T14:35:45.589Z,12.30
2018-11-05T14:38:14.224Z,12.20
2018-11-05T14:40:42.780Z,12.20
2018-11-05T14:43:11.538Z,12.20
2018-11-05T14:45:39.891Z,12.20
2018-11-05T14:48:08.491Z,12.10
2018-11-05T14:50:37.223Z,12.10
2018-11-05T14:53:05.767Z,12.10
2018-11-05T14:55:34.255Z,12.00
2018-11-05T14:58:02.747Z,12.00
2018-11-05T15:00:31.437Z,11.90
2018-11-05T15:02:59.915Z,11.90
2018-11-05T15:05:28.424Z,11.90
2018-11-05T15:07:56.972Z,11.80
2018-11-05T15:10:26.151Z,11.80
2018-11-05T15:12:54.706Z,11.70
2018-11-05T15:15:23.729Z,11.70
2018-11-05T15:17:52.379Z,11.60
2018-11-05T15:20:22.344Z,11.60
2018-11-05T15:22:50.985Z,11.50
2018-11-05T15:25:20.517Z,11.40
2018-11-05T15:27:49.079Z,11.40
2018-11-05T15:30:20.139Z,11.40
2018-11-05T15:32:48.887Z,11.40
2018-11-05T15:35:17.370Z,11.30
2018-11-05T15:37:46.263Z,11.30
2018-11-05T15:40:16.155Z,11.20
2018-11-05T15:42:44.904Z,11.20
2018-11-05T15:45:14.711Z,11.20
2018-11-05T15:47:43.703Z,11.20
2018-11-05T15:50:14.420Z,11.10
2018-11-05T15:52:43.407Z,11.10
2018-11-05T15:55:12.127Z,11.10
2018-11-05T15:57:41.209Z,11.10
2018-11-05T16:00:17.951Z,11.10
2018-11-05T16:02:48.998Z,11.10
2018-11-05T16:05:18.729Z,11.10
2018-11-05T16:07:47.479Z,10.90
2018-11-05T16:10:16.371Z,10.90
2018-11-05T16:12:44.990Z,10.90
2018-11-05T16:15:14.047Z,10.90
2018-11-05T16:17:42.623Z,10.90
2018-11-05T16:20:17.315Z,10.90
2018-11-05T16:22:46.655Z,10.80
2018-11-05T16:25:15.181Z,10.80
2018-11-05T16:27:43.943Z,10.80
2018-11-05T16:30:14.554Z,10.80
2018-11-05T16:32:43.688Z,10.80
2018-11-05T16:35:12.175Z,10.80
2018-11-05T16:37:41.203Z,10.70
2018-11-05T16:40:12.161Z,10.70
2018-11-05T16:42:40.848Z,10.80
2018-11-05T16:45:10.332Z,10.70
2018-11-05T16:47:39.550Z,10.80
2018-11-05T16:50:10.682Z,10.70
2018-11-05T16:52:39.324Z,10.70
2018-11-05T16:55:09.685Z,10.80
2018-11-05T16:57:38.364Z,10.80
2018-11-05T17:00:07.551Z,10.70
2018-11-05T17:02:36.296Z,10.70
2018-11-05T17:05:05.158Z,10.70
2018-11-05T17:07:33.663Z,10.70
2018-11-05T17:10:02.224Z,10.70
2018-11-05T17:12:30.737Z,10.70
2018-11-05T17:14:59.391Z,10.60
2018-11-05T17:17:27.917Z,10.60
2018-11-05T17:19:56.479Z,10.60
2018-11-05T17:22:25.063Z,10.60
2018-11-05T17:24:53.653Z,10.50
2018-11-05T17:27:22.157Z,10.50
2018-11-05T17:29:50.710Z,10.40
2018-11-05T17:32:19.479Z,10.40
2018-11-05T17:34:48.090Z,10.40
2018-11-05T17:37:17.148Z,10.40
2018-11-05T17:39:45.646Z,10.30
2018-11-05T17:42:14.203Z,10.30
2018-11-05T17:44:42.743Z,10.30
2018-11-05T17:47:11.310Z,10.20
2018-11-05T17:49:40.160Z,10.20
2018-11-05T17:52:08.783Z,10.30
2018-11-05T17:54:37.365Z,10.20
2018-11-05T17:57:05.932Z,10.20
2018-11-05T17:59:34.431Z,10.20
2018-11-05T18:02:03.088Z,10.10
2018-11-05T18:04:31.968Z,10.10
2018-11-05T18:07:00.446Z,10.10
2018-11-05T18:09:28.997Z,10.00
2018-11-05T18:11:57.452Z,10.00
2018-11-05T18:14:26.186Z,9.90
2018-11-05T18:16:54.755Z,9.80
2018-11-05T18:19:23.271Z,9.80
2018-11-05T18:21:51.845Z,9.70
2018-11-05T18:24:20.802Z,9.80
2018-11-05T18:26:49.291Z,9.80
2018-11-05T18:29:18.213Z,9.80
2018-11-05T18:31:46.719Z,9.80
2018-11-05T18:34:15.170Z,9.80
2018-11-05T18:36:43.876Z,9.70
2018-11-05T18:39:12.395Z,9.60
2018-11-05T18:41:41.019Z,9.50
2018-11-05T18:44:09.530Z,9.60
2018-11-05T18:46:38.111Z,9.50
2018-11-05T18:49:07.054Z,9.50
2018-11-05T18:51:35.635Z,9.40
2018-11-05T18:54:04.237Z,9.40
2018-11-05T18:56:32.786Z,9.30
2018-11-05T18:59:01.317Z,9.40
2018-11-05T19:01:29.950Z,9.40
2018-11-05T19:03:58.753Z,9.40
2018-11-05T19:06:27.323Z,9.20
2018-11-05T19:08:55.871Z,9.10
2018-11-05T19:11:24.528Z,9.20
2018-11-05T19:13:53.144Z,9.20
2018-11-05T19:16:21.671Z,9.30
2018-11-05T19:18:50.186Z,9.30
2018-11-05T19:21:19.096Z,9.30
2018-11-05T19:23:48.063Z,9.30
2018-11-05T19:26:16.494Z,9.20
2018-11-05T19:28:45.091Z,9.20
2018-11-05T19:31:13.634Z,9.30
2018-11-05T19:33:42.531Z,9.30
2018-11-05T19:36:11.196Z,9.40
2018-11-05T19:38:39.827Z,9.40
2018-11-05T19:41:08.462Z,9.40
2018-11-05T19:43:37.095Z,9.40
2018-11-05T19:46:06.416Z,9.50
2018-11-05T19:48:35.238Z,9.50
2018-11-05T19:51:03.865Z,9.50
2018-11-05T19:53:32.408Z,9.40
2018-11-05T19:56:00.882Z,9.40
2018-11-05T19:58:29.402Z,9.40
2018-11-05T20:00:58.071Z,9.40
2018-11-05T20:03:26.552Z,9.40
2018-11-05T20:05:55.105Z,9.40
2018-11-05T20:08:23.650Z,9.40
2018-11-05T20:10:52.344Z,9.40
2018-11-05T20:13:20.867Z,9.40
2018-11-05T20:15:49.555Z,9.40
2018-11-05T20:18:18.053Z,9.40
2018-11-05T20:20:46.658Z,9.40
2018-11-05T20:23:15.136Z,9.40
2018-11-05T20:25:43.667Z,9.30
2018-11-05T20:28:12.259Z,9.40
2018-11-05T20:30:40.730Z,9.30
2018-11-05T20:33:09.459Z,9.30
2018-11-05T20:35:37.908Z,9.30
2018-11-05T20:38:06.582Z,9.30
2018-11-05T20:40:35.241Z,9.30
2018-11-05T20:43:03.727Z,9.30
2018-11-05T20:45:32.194Z,9.30
2018-11-05T20:48:00.776Z,9.30
2018-11-05T20:50:29.239Z,9.30
2018-11-05T20:52:57.769Z,9.30
2018-11-05T20:55:26.219Z,9.20
2018-11-05T20:57:54.756Z,9.10
2018-11-05T21:00:23.583Z,9.10
2018-11-05T21:02:52.271Z,9.20
2018-11-05T21:05:20.779Z,9.00
2018-11-05T21:07:49.274Z,9.10
2018-11-05T21:10:17.930Z,9.00
2018-11-05T21:12:46.430Z,9.00
2018-11-05T21:15:22.292Z,9.00
2018-11-05T21:17:52.186Z,9.10
2018-11-05T21:20:20.633Z,9.10
2018-11-05T21:22:49.776Z,9.10
2018-11-05T21:25:18.119Z,9.10
2018-11-05T21:27:46.695Z,9.10
2018-11-05T21:30:17.339Z,9.00
2018-11-05T21:32:45.864Z,9.00
2018-11-05T21:35:16.659Z,8.90
2018-11-05T21:37:45.551Z,8.90
2018-11-05T21:40:15.451Z,8.90
2018-11-05T21:42:44.030Z,8.90
2018-11-05T21:45:13.693Z,8.80
2018-11-05T21:47:42.725Z,8.90
2018-11-05T21:50:13.111Z,8.90
2018-11-05T21:52:42.262Z,8.80
2018-11-05T21:55:11.015Z,8.80
2018-11-05T21:57:44.770Z,8.80
2018-11-05T22:00:15.179Z,8.90
2018-11-05T22:02:48.959Z,8.80
2018-11-05T22:05:18.145Z,8.70
2018-11-05T22:07:47.528Z,8.70
2018-11-05T22:10:16.139Z,8.80
2018-11-05T22:12:45.444Z,8.80
2018-11-05T22:15:14.039Z,8.80
2018-11-05T22:17:42.612Z,8.80
2018-11-05T22:20:12.144Z,8.80
2018-11-05T22:22:40.964Z,8.80
2018-11-05T22:25:10.084Z,8.90
2018-11-05T22:27:38.672Z,8.80
2018-11-05T22:30:08.708Z,8.80
2018-11-05T22:32:37.546Z,8.90
2018-11-05T22:35:06.323Z,8.80
2018-11-05T22:37:34.915Z,8.90
2018-11-05T22:40:03.583Z,8.90
2018-11-05T22:42:32.094Z,8.90
2018-11-05T22:45:00.594Z,8.90
2018-11-05T22:47:29.211Z,8.90
2018-11-05T22:49:57.734Z,8.90
2018-11-05T22:52:26.199Z,8.90
2018-11-05T22:54:54.679Z,8.90
2018-11-05T22:57:23.255Z,8.90
2018-11-05T22:59:51.717Z,8.80
2018-11-05T23:02:20.266Z,8.80
2018-11-05T23:04:48.863Z,8.80
2018-11-05T23:07:17.354Z,8.70
2018-11-05T23:09:46.023Z,8.70
2018-11-05T23:12:14.490Z,8.60
2018-11-05T23:14:43.155Z,8.50
2018-11-05T23:17:11.694Z,8.50
2018-11-05T23:19:40.327Z,8.40
2018-11-05T23:22:08.807Z,8.50
2018-11-05T23:24:37.487Z,8.40
2018-11-05T23:27:06.023Z,8.40
2018-11-05T23:29:34.554Z,8.40
2018-11-05T23:32:03.119Z,8.30
2018-11-05T23:34:31.603Z,8.30
2018-11-05T23:37:00.254Z,8.20
2018-11-05T23:39:28.798Z,8.30
2018-11-05T23:41:57.424Z,8.20
2018-11-05T23:44:25.887Z,8.20
2018-11-05T23:46:54.531Z,8.10
2018-11-05T23:49:23.046Z,8.20
2018-11-05T23:51:51.746Z,8.10
2018-11-05T23:54:20.195Z,8.10
2018-11-05T23:56:48.720Z,8.10
2018-11-05T23:59:17.355Z,8.00
